Observations for FAIRFORD RAF, United Kingdom (EGVA)

EGVA 280458Z AUTO 05006KT 9000 BR OVC006 14/13 A2950 RMK AO2 SLP991 T01410131   
EGVA 280411Z AUTO 05007KT 9000 BR OVC006 14/13 A2950 RMK AO2 SLP991
EGVA 280403Z AUTO 05006KT 9999 OVC007 14/13 A2950 RMK AO2 SLP991
EGVA 280358Z AUTO 05007KT 9999 OVC006 14/13 A2950 RMK AO2 SLP991 T01420133  
EGVA 280333Z AUTO 04008KT 9000 BR OVC006 14/13 A2950 RMK AO2 SLP991
EGVA 280343Z AUTO 04008KT 9999 OVC005 14/13 A2950 RMK AO2 SLP991
EGVA 280348Z AUTO 05007KT 9999 OVC006 14/13 A2950 RMK AO2 SLP991
EGVA 280258Z AUTO 05006KT 9999 OVC005 14/14 A2951 RMK AO2 SLP994 60004 T01430136 57020  
EGVA 280223Z AUTO 04005KT 9000 BR OVC005 14/14 A2952 RMK AO2 SLP998
EGVA 280203Z AUTO 05006KT 9999 OVC006 14/14 A2952 RMK AO2 SLP998
EGVA 280158Z AUTO 05006KT 9999 OVC005 14/14 A2952 RMK AO2 RAE05DZB05E20 SLP998 P0000 T01440136  
EGVA 280120Z AUTO 06007KT 9999 OVC005 14/14 A2954 RMK AO2 RAE05DZB05E20 SLP005
EGVA 280058Z AUTO 05006KT 9000 -RA BR OVC005 15/14 A2954 RMK AO2 SLP004 P0004 T01460138 
EGVA 280033Z AUTO 06007KT 8000 -RA BR OVC006 15/14 A2955 RMK AO2 SLP008
EGVA 280053Z AUTO 06007KT 8000 -RA BR OVC005 15/14 A2955 RMK AO2 SLP008
EGVA 272358Z AUTO 06008KT 8000 -RA BR OVC005 15/14 A2957 RMK AO2 SLP015 P0005 60009 T01480142 10181 20148 402090137 57011   
EGVA 272343Z AUTO 06006KT 6000 -RA BR OVC006 15/14 A2957 RMK AO2 SLP015
EGVA 272348Z AUTO 06007KT 6000 -RA BR OVC005 15/14 A2957 RMK AO2 SLP015
EGVA 272258Z AUTO 06008KT 6000 -RA BR OVC005 15/15 A2958 RMK AO2 SLP018 P0003 T01510145 
EGVA 272238Z AUTO 05009KT 6000 -RA BR OVC005 15/14 A2958 RMK AO2 SLP018
EGVA 272158Z AUTO 06010KT 6000 -RA BR OVC006 16/15 A2959 RMK AO2 DZE02RAB02 SLP022 P0001 T01570149  
EGVA 272108Z AUTO 06008KT 9000 -RA BR OVC006 16/15 A2960 RMK AO2 DZE02RAB02 SLP025
EGVA 272058Z AUTO 06009KT 9999 -DZ OVC007 16/15 A2960 RMK AO2 DZB57 SLP025 57008
EGVA 272038Z AUTO 06008KT 9999 OVC007 16/15 A2960 RMK AO2 SLP025
EGVA 272008Z AUTO 07009KT 9999 BKN008 17/15 A2960 RMK AO2 SLP025
EGVA 272003Z AUTO 07008KT 9999 BKN007 17/15 A2960 RMK AO2 BKN V SCT SLP025
EGVA 272057Z AUTO 06009KT 9999 -DZ OVC007 16/15 A2960 RMK AO2 DZB57 SLP025
EGVA 271958Z AUTO 07008KT 9999 SCT007 17/15 A2960 RMK AO2 SLP025 T01670154  
EGVA 271943Z AUTO 08009KT 9999 SCT007 17/15 A2961 RMK AO2 SLP029
EGVA 271908Z AUTO 06008KT 9999 BKN007 17/16 A2961 RMK AO2 BKN V SCT SLP029
EGVA 271913Z AUTO 06008KT 9999 BKN008 17/15 A2961 RMK AO2 SLP029
EGVA 271918Z AUTO 07007KT 9999 BKN007 17/15 A2961 RMK AO2 SLP029
EGVA 271903Z AUTO 07007KT 9999 SCT007 17/15 A2961 RMK AO2 SLP029
EGVA 271858Z AUTO 06009KT 9999 BKN008 17/16 A2961 RMK AO2 BKN V SCT SLP029  
EGVA 271758Z AUTO 06008KT 9999 FEW036 18/15 A2962 RMK AO2 SLP032 T01830153 10209 20183 57014
EGVA 271658Z AUTO 08008KT 9999 FEW040 19/15 A2963 RMK AO2 SLP035 T01910145  
EGVA 271633Z AUTO 07009KT 9999 SCT031 19/14 A2964 RMK AO2 SLP039
EGVA 271558Z AUTO 07008KT 9999 BKN032 BKN039 20/14 A2965 RMK AO2 SLP042 T01960141   
EGVA 271518Z AUTO 06005KT 9999 BKN034 20/13 A2966 RMK AO2 SLP045
EGVA 271458Z AUTO 11005KT 9999 FEW046 SCT210 21/13 A2967 RMK AO2 SLP049 T02080125 57012 
EGVA 271433Z AUTO 16004KT 9999 SCT038 20/12 A2967 RMK AO2 SLP049
EGVA 271358Z AUTO 00000KT 9999 BKN037 20/12 A2968 RMK AO2 SLP052 T01990118  
EGVA 271323Z AUTO 11004KT 9999 BKN038 BKN160 BKN190 20/12 A2968 RMK AO2 SLP052
EGVA 271258Z AUTO 12004KT 9999 FEW130 SCT160 SCT190 20/11 A2969 RMK AO2 SLP055 T01950113
EGVA 271158Z AUTO 07004KT 9999 FEW140 SCT170 SCT200 19/11 A2970 RMK AO2 SLP059 T01940110 10194 20145 57016  
EGVA 271128Z AUTO 11003KT 9999 SCT038 SCT120 BKN160 BKN190 19/11 A2971 RMK AO2 SLP062
EGVA 271108Z AUTO 11003KT 4000 HZ BKN038 18/10 A2972 RMK AO2 VIS 4000V4800 SLP066
EGVA 271113Z AUTO 00000KT 4800 HZ BKN038 19/10 A2972 RMK AO2 SLP065
EGVA 271118Z AUTO 09005KT 8000 HZ BKN038 BKN190 19/10 A2972 RMK AO2 SLP066
EGVA 271103Z AUTO 12004KT 4800 HZ BKN038 18/10 A2972 RMK AO2 SLP066
EGVA 271058Z AUTO 00000KT 4000 HZ OVC038 18/10 A2972 RMK AO2 SLP066 T01830099   
EGVA 271033Z AUTO 00000KT 4800 HZ BKN039 18/10 A2973 RMK AO2 SLP069
EGVA 271038Z AUTO 12003KT 4000 HZ BKN039 BKN180 18/10 A2973 RMK AO2 VIS 4000V8000 SLP069
EGVA 270958Z AUTO 13003KT 9999 OVC040 18/09 A2974 RMK AO2 SLP072 T01770091  
EGVA 270858Z AUTO 12005KT 9999 BKN045 18/08 A2975 RMK AO2 SLP075 T01750084 57011
EGVA 270838Z AUTO 12005KT 9999 BKN047 BKN170 18/09 A2975 RMK AO2 SLP075
EGVA 270843Z AUTO 12007KT 9999 SCT045 BKN050 18/09 A2975 RMK AO2 SLP075
EGVA 270848Z AUTO 11005KT 9999 BKN045 BKN050 18/09 A2975 RMK AO2 SLP075
EGVA 270758Z AUTO 09007KT 9999 FEW170 17/10 A2976 RMK AO2 SLP079 T01700104  
EGVA 270743Z AUTO 10005KT 9999 SCT042 BKN170 16/10 A2976 RMK AO2 SLP079
EGVA 270723Z AUTO 06006KT 9999 BKN041 BKN060 16/10 A2976 RMK AO2 SLP079
EGVA 270703Z AUTO 08007KT 9999 SCT041 BKN060 15/10 A2977 RMK AO2 SLP082
EGVA 270658Z AUTO 08007KT 9999 BKN041 BKN060 15/10 A2977 RMK AO2 SLP082 T01520099   
EGVA 270558Z AUTO 07006KT 9999 BKN045 BKN050 14/10 A2978 RMK AO2 SLP086 T01440098 10170 20137 57013 
EGVA 270458Z AUTO 07006KT 9999 BKN044 BKN060 14/10 A2980 RMK AO2 SLP093 T01400096